createdAt,value
2023-04-29T00:00:10.268Z,4.97
2023-04-29T00:02:36.991Z,4.53
2023-04-29T00:05:05.218Z,4.17
2023-04-29T00:07:32.464Z,3.97
2023-04-29T00:09:59.253Z,5.37
2023-04-29T00:12:26.040Z,5.07
2023-04-29T00:14:52.968Z,4.07
2023-04-29T00:17:19.595Z,4.10
2023-04-29T00:19:46.198Z,5.10
2023-04-29T00:22:12.772Z,4.23
2023-04-29T00:24:39.323Z,4.30
2023-04-29T00:27:06.556Z,5.10
2023-04-29T00:29:33.166Z,4.47
2023-04-29T00:31:59.994Z,4.53
2023-04-29T00:34:26.648Z,4.93
2023-04-29T00:36:53.274Z,4.70
2023-04-29T00:39:19.803Z,5.37
2023-04-29T00:41:46.501Z,6.10
2023-04-29T00:44:13.056Z,5.20
2023-04-29T00:46:39.900Z,5.55
2023-04-29T00:49:08.225Z,5.13
2023-04-29T00:51:36.150Z,5.40
2023-04-29T00:54:04.369Z,5.53
2023-04-29T00:56:33.648Z,5.33
2023-04-29T00:59:02.516Z,5.30
2023-04-29T01:01:30.539Z,5.90
2023-04-29T01:03:58.382Z,5.90
2023-04-29T01:06:54.047Z,5.77
2023-04-29T01:09:43.744Z,6.00
2023-04-29T01:12:22.709Z,6.03
2023-04-29T01:15:06.803Z,5.30
2023-04-29T01:17:41.318Z,6.10
2023-04-29T01:20:10.350Z,5.20
2023-04-29T01:22:39.204Z,5.73
2023-04-29T01:25:07.043Z,5.17
2023-04-29T01:27:42.329Z,6.00
2023-04-29T01:30:31.563Z,6.43
2023-04-29T01:33:12.483Z,5.60
2023-04-29T01:35:46.916Z,5.77
2023-04-29T01:38:42.033Z,6.40
2023-04-29T01:41:12.191Z,5.97
2023-04-29T01:43:39.502Z,9.03
2023-04-29T01:46:10.054Z,5.80
2023-04-29T01:48:37.380Z,8.60
2023-04-29T01:51:05.632Z,5.73
2023-04-29T01:53:32.829Z,5.73
2023-04-29T01:55:59.399Z,6.40
2023-04-29T01:58:26.098Z,6.10
2023-04-29T02:00:52.778Z,5.97
2023-04-29T02:03:19.872Z,5.90
2023-04-29T02:05:46.449Z,6.37
2023-04-29T02:08:13.244Z,5.23
2023-04-29T02:10:39.817Z,5.47
2023-04-29T02:13:06.442Z,5.27
2023-04-29T02:15:33.064Z,5.23
2023-04-29T02:17:59.810Z,6.20
2023-04-29T02:20:26.763Z,7.50
2023-04-29T02:22:53.258Z,5.63
2023-04-29T02:25:19.846Z,5.07
2023-04-29T02:27:46.491Z,5.83
2023-04-29T02:30:13.072Z,5.30
2023-04-29T02:32:39.644Z,5.43
2023-04-29T02:35:07.524Z,5.53
2023-04-29T02:37:34.628Z,5.90
2023-04-29T02:40:02.390Z,6.28
2023-04-29T02:42:29.265Z,5.87
2023-04-29T02:44:56.306Z,5.10
2023-04-29T02:47:22.865Z,5.97
2023-04-29T02:49:49.708Z,5.17
2023-04-29T02:52:17.219Z,5.47
2023-04-29T02:54:43.931Z,5.23
2023-04-29T02:57:11.052Z,5.20
2023-04-29T02:59:37.737Z,5.67
2023-04-29T03:02:04.406Z,7.43
2023-04-29T03:04:31.053Z,4.90
2023-04-29T03:06:57.921Z,5.33
2023-04-29T03:09:24.643Z,5.17
2023-04-29T03:11:51.211Z,5.63
2023-04-29T03:14:17.806Z,7.47
2023-04-29T03:16:44.397Z,5.00
2023-04-29T03:19:11.014Z,5.43
2023-04-29T03:21:37.554Z,5.33
2023-04-29T03:24:04.251Z,5.33
2023-04-29T03:26:30.780Z,5.20
2023-04-29T03:28:58.474Z,9.13
2023-04-29T03:31:26.928Z,5.93
2023-04-29T03:33:53.541Z,6.53
2023-04-29T03:36:20.376Z,6.73
2023-04-29T03:38:46.894Z,6.27
2023-04-29T03:41:13.532Z,6.93
2023-04-29T03:43:40.823Z,6.57
2023-04-29T03:46:07.538Z,6.83
2023-04-29T03:48:34.130Z,7.57
2023-04-29T03:51:00.755Z,10.13
2023-04-29T03:53:27.464Z,8.80
2023-04-29T03:55:54.253Z,7.87
2023-04-29T03:58:20.790Z,8.13
2023-04-29T04:00:47.406Z,7.47
2023-04-29T04:03:14.116Z,7.20
2023-04-29T04:05:40.895Z,7.67
2023-04-29T04:08:07.592Z,6.57
2023-04-29T04:10:34.110Z,6.30
2023-04-29T04:13:00.625Z,6.27
2023-04-29T04:15:27.169Z,7.30
2023-04-29T04:17:53.738Z,6.63
2023-04-29T04:20:20.311Z,8.37
2023-04-29T04:22:46.868Z,6.33
2023-04-29T04:25:13.456Z,6.37
2023-04-29T04:27:40.013Z,6.63
2023-04-29T04:30:07.241Z,6.17
2023-04-29T04:32:33.815Z,5.93
2023-04-29T04:35:00.354Z,6.53
2023-04-29T04:37:27.060Z,5.97
2023-04-29T04:39:53.981Z,6.30
2023-04-29T04:42:21.947Z,7.00
2023-04-29T04:44:48.634Z,6.47
2023-04-29T04:47:15.180Z,6.20
2023-04-29T04:49:41.782Z,6.27
2023-04-29T04:52:08.288Z,6.80
2023-04-29T04:54:35.409Z,7.93
2023-04-29T04:57:06.029Z,7.00
2023-04-29T04:59:33.685Z,7.20
2023-04-29T05:02:00.432Z,6.97
2023-04-29T05:04:27.721Z,5.67
2023-04-29T05:06:54.458Z,6.57
2023-04-29T05:09:21.001Z,6.00
2023-04-29T05:11:49.018Z,6.37
2023-04-29T05:14:18.087Z,6.47
2023-04-29T05:16:48.491Z,5.90
2023-04-29T05:19:21.046Z,6.43
2023-04-29T05:21:50.671Z,6.10
2023-04-29T05:24:37.753Z,5.70
2023-04-29T05:27:04.803Z,8.80
2023-04-29T05:29:32.138Z,6.33
2023-04-29T05:31:59.260Z,7.33
2023-04-29T05:34:26.356Z,6.30
2023-04-29T05:36:52.873Z,6.50
2023-04-29T05:39:19.465Z,6.63
2023-04-29T05:41:46.067Z,11.37
2023-04-29T05:44:12.594Z,5.80
2023-04-29T05:46:39.724Z,6.00
2023-04-29T05:49:06.835Z,6.20
2023-04-29T05:51:34.915Z,6.00
2023-04-29T05:54:01.863Z,5.53
2023-04-29T05:56:28.837Z,5.17
2023-04-29T05:58:55.944Z,5.30
2023-04-29T06:01:23.330Z,7.33
2023-04-29T06:03:50.642Z,5.13
2023-04-29T06:06:18.043Z,5.83
2023-04-29T06:08:45.072Z,6.63
2023-04-29T06:11:12.181Z,4.90
2023-04-29T06:13:39.206Z,6.20
2023-04-29T06:16:06.541Z,5.80
2023-04-29T06:18:33.635Z,5.43
2023-04-29T06:21:00.648Z,5.90
2023-04-29T06:23:27.690Z,6.20
2023-04-29T06:25:54.730Z,6.87
2023-04-29T06:28:21.887Z,5.23
2023-04-29T06:30:50.027Z,5.17
2023-04-29T06:33:17.016Z,5.47
2023-04-29T06:35:44.033Z,6.30
2023-04-29T06:38:11.055Z,4.70
2023-04-29T06:40:38.053Z,5.33
2023-04-29T06:43:05.064Z,4.77
2023-04-29T06:45:32.090Z,4.70
2023-04-29T06:47:59.148Z,3.80
2023-04-29T06:50:26.502Z,4.00
2023-04-29T06:52:54.110Z,3.43
2023-04-29T06:55:21.124Z,3.40
2023-04-29T06:57:48.138Z,3.47
2023-04-29T07:00:16.034Z,3.80
2023-04-29T07:02:43.182Z,4.83
2023-04-29T07:05:10.673Z,4.40
2023-04-29T07:07:37.720Z,5.17
2023-04-29T07:10:05.216Z,4.27
2023-04-29T07:12:32.236Z,5.43
2023-04-29T07:14:59.820Z,3.40
2023-04-29T07:17:26.858Z,3.07
2023-04-29T07:19:54.119Z,4.57
2023-04-29T07:22:21.671Z,3.53
2023-04-29T07:24:48.665Z,3.27
2023-04-29T07:27:15.639Z,3.33
2023-04-29T07:29:42.642Z,3.17
2023-04-29T07:32:09.623Z,3.73
2023-04-29T07:34:36.756Z,3.30
2023-04-29T07:37:03.593Z,6.13
2023-04-29T07:39:30.619Z,3.73
2023-04-29T07:41:57.144Z,3.30
2023-04-29T07:44:23.698Z,3.67
2023-04-29T07:46:50.214Z,3.90
2023-04-29T07:49:16.769Z,3.13
2023-04-29T07:51:43.973Z,4.20
2023-04-29T07:54:10.618Z,3.50
2023-04-29T07:56:37.174Z,3.27
2023-04-29T07:59:03.761Z,3.60
2023-04-29T08:01:30.381Z,3.50
2023-04-29T08:03:57.042Z,4.47
2023-04-29T08:06:23.746Z,3.30
2023-04-29T08:08:50.548Z,3.57
2023-04-29T08:11:17.960Z,3.47
2023-04-29T08:13:45.957Z,3.00
2023-04-29T08:16:13.249Z,3.53
2023-04-29T08:18:40.487Z,3.93
2023-04-29T08:21:07.358Z,4.40
2023-04-29T08:23:34.130Z,4.23
2023-04-29T08:26:01.095Z,3.70
2023-04-29T08:28:28.037Z,5.10
2023-04-29T08:30:55.378Z,3.53
2023-04-29T08:33:22.189Z,3.53
2023-04-29T08:35:48.804Z,3.20
2023-04-29T08:38:15.627Z,3.40
2023-04-29T08:40:45.785Z,4.10
2023-04-29T08:43:13.988Z,3.93
2023-04-29T08:45:42.681Z,3.00
2023-04-29T08:48:10.082Z,3.50
2023-04-29T08:50:41.342Z,3.40
2023-04-29T08:53:09.004Z,3.83
2023-04-29T08:55:37.194Z,3.27
2023-04-29T08:58:04.417Z,3.50
2023-04-29T09:00:32.474Z,3.50
2023-04-29T09:03:01.419Z,5.10
2023-04-29T09:05:28.628Z,3.40
2023-04-29T09:07:57.319Z,4.83
2023-04-29T09:10:23.927Z,4.00
2023-04-29T09:12:50.550Z,4.00
2023-04-29T09:15:17.161Z,4.03
2023-04-29T09:17:48.411Z,3.70
2023-04-29T09:20:21.033Z,3.83
2023-04-29T09:22:52.762Z,5.67
2023-04-29T09:25:19.871Z,3.97
2023-04-29T09:27:46.688Z,3.70
2023-04-29T09:30:15.872Z,3.63
2023-04-29T09:32:43.511Z,4.47
2023-04-29T09:35:27.293Z,6.87
2023-04-29T09:38:07.623Z,3.83
2023-04-29T09:40:43.367Z,5.30
2023-04-29T09:43:18.564Z,4.33
2023-04-29T09:45:47.270Z,4.03
2023-04-29T09:48:14.804Z,4.20
2023-04-29T09:50:43.595Z,4.40
2023-04-29T09:53:11.213Z,4.27
2023-04-29T09:55:58.223Z,4.60
2023-04-29T09:58:29.914Z,4.07
2023-04-29T10:01:00.973Z,4.97
2023-04-29T10:03:32.739Z,3.70
2023-04-29T10:06:00.633Z,3.90
2023-04-29T10:08:29.407Z,3.73
2023-04-29T10:11:03.236Z,4.03
2023-04-29T10:13:30.659Z,4.27
2023-04-29T10:16:00.217Z,3.90
2023-04-29T10:18:36.336Z,5.87
2023-04-29T10:21:04.334Z,4.00
2023-04-29T10:23:31.819Z,4.20
2023-04-29T10:26:00.526Z,3.20
2023-04-29T10:28:28.455Z,4.37
2023-04-29T10:30:56.767Z,3.67
2023-04-29T10:33:23.939Z,5.63
2023-04-29T10:35:53.925Z,6.60
2023-04-29T10:38:24.715Z,4.07
2023-04-29T10:40:52.489Z,4.90
2023-04-29T10:43:26.370Z,3.80
2023-04-29T10:46:13.475Z,4.03
2023-04-29T10:48:40.608Z,3.97
2023-04-29T10:51:07.592Z,5.33
2023-04-29T10:53:35.546Z,3.60
2023-04-29T10:56:08.392Z,5.27
2023-04-29T10:58:41.263Z,3.67
2023-04-29T11:01:10.330Z,3.57
2023-04-29T11:03:59.536Z,3.57
2023-04-29T11:06:35.544Z,4.07
2023-04-29T11:09:02.627Z,3.33
2023-04-29T11:11:45.555Z,5.53
2023-04-29T11:14:14.147Z,4.00
2023-04-29T11:16:49.162Z,4.03
2023-04-29T11:19:17.959Z,4.10
2023-04-29T11:21:45.945Z,4.97
2023-04-29T11:24:15.461Z,3.80
2023-04-29T11:26:43.600Z,5.57
2023-04-29T11:29:10.712Z,3.67
2023-04-29T11:31:39.393Z,3.47
2023-04-29T11:34:07.228Z,4.60
2023-04-29T11:36:34.594Z,3.20
2023-04-29T11:39:03.479Z,5.10
2023-04-29T11:41:31.514Z,4.40
2023-04-29T11:43:59.481Z,4.70
2023-04-29T11:46:28.772Z,6.40
2023-04-29T11:48:58.363Z,4.70
2023-04-29T11:51:25.419Z,5.00
2023-04-29T11:53:52.424Z,5.40
2023-04-29T11:56:24.151Z,5.67
2023-04-29T11:58:53.483Z,5.87
2023-04-29T12:01:21.451Z,6.97
2023-04-29T12:03:50.902Z,6.43
2023-04-29T12:06:17.603Z,5.87
2023-04-29T12:08:46.954Z,6.60
2023-04-29T12:11:14.104Z,6.77
2023-04-29T12:13:41.462Z,9.43
2023-04-29T12:16:08.316Z,6.77
2023-04-29T12:18:35.478Z,6.70
2023-04-29T12:21:03.013Z,7.03
2023-04-29T12:23:29.742Z,7.07
2023-04-29T12:26:00.858Z,7.73
2023-04-29T12:28:27.617Z,7.57
2023-04-29T12:31:02.783Z,8.95
2023-04-29T12:33:29.937Z,7.93
2023-04-29T12:35:58.681Z,8.20
2023-04-29T12:38:29.933Z,7.77
2023-04-29T12:40:59.050Z,7.23
2023-04-29T12:43:29.076Z,7.90
2023-04-29T12:46:03.524Z,7.27
2023-04-29T12:48:33.569Z,7.70
2023-04-29T12:51:01.644Z,7.93
2023-04-29T12:53:29.971Z,9.43
2023-04-29T12:55:57.292Z,7.93
2023-04-29T12:58:24.296Z,8.00
2023-04-29T13:00:51.657Z,8.20
2023-04-29T13:03:21.990Z,9.03
2023-04-29T13:05:52.558Z,8.70
2023-04-29T13:08:20.406Z,8.60
2023-04-29T13:10:47.394Z,8.70
2023-04-29T13:13:14.391Z,8.00
2023-04-29T13:15:41.392Z,8.60
2023-04-29T13:18:08.464Z,8.90
2023-04-29T13:20:41.063Z,9.07
2023-04-29T13:23:09.090Z,8.33
2023-04-29T13:25:36.112Z,8.33
2023-04-29T13:28:03.147Z,8.57
2023-04-29T13:30:30.110Z,8.17
2023-04-29T13:33:03.136Z,10.40
2023-04-29T13:35:36.025Z,9.30
2023-04-29T13:38:02.761Z,9.27
2023-04-29T13:40:29.466Z,9.67
2023-04-29T13:43:04.383Z,9.93
2023-04-29T13:45:38.984Z,8.47
2023-04-29T13:48:16.932Z,8.77
2023-04-29T13:53:41.989Z,9.07
2023-04-29T13:59:30.470Z,9.23
2023-04-29T14:02:14.745Z,8.57
2023-04-29T14:04:14.393Z,8.97
2023-04-29T14:06:43.681Z,9.37
2023-04-29T14:09:10.909Z,8.70
2023-04-29T14:11:37.570Z,10.30
2023-04-29T14:14:04.706Z,8.57
2023-04-29T14:16:32.144Z,8.43
2023-04-29T14:19:00.644Z,8.60
2023-04-29T14:21:28.533Z,7.93
2023-04-29T14:23:55.159Z,8.70
2023-04-29T14:26:28.364Z,10.27
2023-04-29T14:28:59.676Z,9.27
2023-04-29T14:31:28.443Z,7.87
2023-04-29T14:33:55.942Z,9.03
2023-04-29T14:36:22.797Z,9.53
2023-04-29T14:38:49.426Z,9.10
2023-04-29T14:41:16.294Z,8.90
2023-04-29T14:43:43.008Z,9.73
2023-04-29T14:46:10.059Z,9.47
2023-04-29T14:48:36.694Z,8.53
2023-04-29T14:51:03.362Z,10.10
2023-04-29T14:53:29.921Z,8.40
2023-04-29T14:55:56.522Z,7.83
2023-04-29T14:58:23.090Z,9.10
2023-04-29T15:00:50.975Z,9.40
2023-04-29T15:03:22.474Z,10.07
2023-04-29T15:05:51.124Z,9.90
2023-04-29T15:08:18.800Z,8.80
2023-04-29T15:10:49.777Z,8.83
2023-04-29T15:13:16.350Z,8.97
2023-04-29T15:15:42.979Z,9.47
2023-04-29T15:18:09.805Z,10.47
2023-04-29T15:20:37.404Z,10.27
2023-04-29T15:23:05.279Z,11.33
2023-04-29T15:25:36.169Z,10.07
2023-04-29T15:28:05.027Z,11.13
2023-04-29T15:30:32.252Z,9.77
2023-04-29T15:32:58.926Z,10.02
2023-04-29T15:35:25.554Z,9.23
2023-04-29T15:37:52.118Z,8.77
2023-04-29T15:40:18.993Z,8.70
2023-04-29T15:42:45.647Z,11.20
2023-04-29T15:45:12.341Z,8.40
2023-04-29T15:47:39.638Z,8.57
2023-04-29T15:50:07.305Z,8.17
2023-04-29T15:52:33.933Z,7.53
2023-04-29T15:55:00.502Z,8.50
2023-04-29T15:57:27.110Z,7.33
2023-04-29T15:59:53.939Z,8.23
2023-04-29T16:02:21.389Z,9.00
2023-04-29T16:04:48.136Z,9.20
2023-04-29T16:07:14.892Z,9.30
2023-04-29T16:09:41.546Z,8.63
2023-04-29T16:12:08.575Z,7.63
2023-04-29T16:14:35.217Z,8.23
2023-04-29T16:17:02.026Z,8.40
2023-04-29T16:19:28.713Z,9.17
2023-04-29T16:21:55.451Z,9.07
2023-04-29T16:24:22.207Z,8.20
2023-04-29T16:26:49.389Z,8.30
2023-04-29T16:29:16.015Z,8.07
2023-04-29T16:31:43.610Z,8.33
2023-04-29T16:34:11.644Z,8.23
2023-04-29T16:36:38.195Z,7.50
2023-04-29T16:39:04.743Z,6.83
2023-04-29T16:41:31.962Z,6.97
2023-04-29T16:43:58.817Z,7.30
2023-04-29T16:46:25.936Z,7.60
2023-04-29T16:48:56.552Z,6.53
2023-04-29T16:51:27.392Z,7.13
2023-04-29T16:53:54.556Z,6.57
2023-04-29T16:56:22.454Z,6.70
2023-04-29T16:58:49.070Z,6.27
2023-04-29T17:01:16.132Z,7.27
2023-04-29T17:03:42.827Z,6.17
2023-04-29T17:06:09.550Z,6.93
2023-04-29T17:08:36.201Z,6.70
2023-04-29T17:11:05.082Z,6.80
2023-04-29T17:13:31.835Z,6.50
2023-04-29T17:15:58.768Z,6.13
2023-04-29T17:18:25.778Z,6.83
2023-04-29T17:20:52.446Z,7.57
2023-04-29T17:23:19.191Z,10.53
2023-04-29T17:25:45.842Z,6.10
2023-04-29T17:28:12.413Z,6.93
2023-04-29T17:30:38.957Z,6.93
2023-04-29T17:33:05.972Z,6.43
2023-04-29T17:35:33.498Z,6.03
2023-04-29T17:38:00.571Z,7.00
2023-04-29T17:40:28.417Z,6.70
2023-04-29T17:42:55.013Z,7.03
2023-04-29T17:45:21.658Z,6.83
2023-04-29T17:47:48.385Z,6.87
2023-04-29T17:50:15.076Z,7.57
2023-04-29T17:52:41.929Z,6.47
2023-04-29T17:55:09.240Z,6.70
2023-04-29T17:57:37.870Z,7.17
2023-04-29T18:00:07.282Z,7.50
2023-04-29T18:02:34.480Z,8.03
2023-04-29T18:05:03.271Z,6.73
2023-04-29T18:07:30.021Z,6.67
2023-04-29T18:09:57.004Z,9.77
2023-04-29T18:12:24.686Z,7.10
2023-04-29T18:14:51.874Z,6.33
2023-04-29T18:17:18.808Z,6.87
2023-04-29T18:19:48.424Z,7.90
2023-04-29T18:22:15.581Z,6.13
2023-04-29T18:24:42.132Z,6.90
2023-04-29T18:27:08.694Z,7.43
2023-04-29T18:29:35.271Z,6.93
2023-04-29T18:32:01.815Z,7.37
2023-04-29T18:34:28.450Z,7.43
2023-04-29T18:36:54.957Z,7.17
2023-04-29T18:39:21.630Z,7.72
2023-04-29T18:41:48.303Z,8.00
2023-04-29T18:44:14.856Z,7.90
2023-04-29T18:46:41.533Z,7.03
2023-04-29T18:49:08.609Z,7.47
2023-04-29T18:51:35.573Z,7.03
2023-04-29T18:54:02.231Z,8.23
2023-04-29T18:56:28.775Z,9.63
2023-04-29T18:58:55.408Z,8.80
2023-04-29T19:01:21.946Z,8.60
2023-04-29T19:03:48.521Z,10.13
2023-04-29T19:06:15.134Z,9.40
2023-04-29T19:08:41.783Z,11.33
2023-04-29T19:11:08.324Z,10.40
2023-04-29T19:13:34.873Z,10.43
2023-04-29T19:16:01.457Z,8.47
2023-04-29T19:18:28.489Z,8.93
2023-04-29T19:20:56.012Z,9.23
2023-04-29T19:23:22.628Z,9.00
2023-04-29T19:25:49.360Z,8.30
2023-04-29T19:28:15.982Z,9.27
2023-04-29T19:30:42.586Z,9.30
2023-04-29T19:33:09.126Z,9.63
2023-04-29T19:35:39.030Z,9.60
2023-04-29T19:38:21.821Z,10.00
2023-04-29T19:41:29.818Z,10.07
2023-04-29T19:43:58.997Z,10.00
2023-04-29T19:46:26.105Z,11.33
2023-04-29T19:48:53.160Z,13.17
2023-04-29T19:51:20.905Z,11.47
2023-04-29T19:53:48.076Z,12.40
2023-04-29T19:56:15.868Z,11.60
2023-04-29T19:58:42.850Z,12.07
2023-04-29T20:01:09.835Z,10.50
2023-04-29T20:03:39.202Z,10.40
2023-04-29T20:06:07.240Z,11.87
2023-04-29T20:08:34.276Z,10.27
2023-04-29T20:11:02.543Z,10.80
2023-04-29T20:13:29.545Z,11.50
2023-04-29T20:15:56.723Z,12.17
2023-04-29T20:18:23.755Z,11.43
2023-04-29T20:20:50.908Z,13.53
2023-04-29T20:23:18.128Z,11.93
2023-04-29T20:25:46.150Z,12.50
2023-04-29T20:28:13.250Z,14.23
2023-04-29T20:30:40.242Z,11.57
2023-04-29T20:33:09.194Z,12.68
2023-04-29T20:35:38.482Z,11.70
2023-04-29T20:38:37.075Z,12.27
2023-04-29T20:41:17.117Z,11.13
2023-04-29T20:43:46.267Z,11.73
2023-04-29T20:46:13.647Z,12.10
2023-04-29T20:48:40.859Z,11.63
2023-04-29T20:51:07.866Z,11.40
2023-04-29T20:53:34.904Z,11.53
2023-04-29T20:56:01.918Z,13.03
2023-04-29T20:58:29.013Z,12.87
2023-04-29T21:00:56.323Z,11.73
2023-04-29T21:03:23.490Z,10.60
2023-04-29T21:05:57.106Z,11.63
2023-04-29T21:08:24.331Z,11.07
2023-04-29T21:10:51.515Z,11.57
2023-04-29T21:13:18.735Z,11.37
2023-04-29T21:15:49.149Z,12.47
2023-04-29T21:18:16.524Z,10.13
2023-04-29T21:20:43.595Z,9.70
2023-04-29T21:23:10.730Z,11.10
2023-04-29T21:25:37.701Z,11.13
2023-04-29T21:28:04.747Z,10.93
2023-04-29T21:30:31.694Z,10.50
2023-04-29T21:32:58.797Z,10.80
2023-04-29T21:35:27.338Z,10.57
2023-04-29T21:37:54.503Z,11.40
2023-04-29T21:40:22.590Z,10.53
2023-04-29T21:42:50.980Z,11.00
2023-04-29T21:45:18.085Z,11.57
2023-04-29T21:47:45.305Z,12.13
2023-04-29T21:50:12.446Z,10.20
2023-04-29T21:52:39.489Z,10.57
2023-04-29T21:55:06.741Z,9.47
2023-04-29T21:57:43.491Z,9.33
2023-04-29T22:00:28.497Z,8.83
2023-04-29T22:02:55.659Z,7.87
2023-04-29T22:05:22.746Z,8.03
2023-04-29T22:07:49.747Z,8.63
2023-04-29T22:10:16.796Z,7.77
2023-04-29T22:12:43.794Z,8.20
2023-04-29T22:15:24.737Z,8.13
2023-04-29T22:17:54.569Z,7.63
2023-04-29T22:20:21.625Z,7.63
2023-04-29T22:22:48.638Z,7.93
2023-04-29T22:25:15.650Z,7.70
2023-04-29T22:27:42.630Z,6.60
2023-04-29T22:30:09.852Z,7.00
2023-04-29T22:32:36.949Z,6.23
2023-04-29T22:35:04.160Z,6.43
2023-04-29T22:37:31.219Z,6.50
2023-04-29T22:39:58.220Z,6.10
2023-04-29T22:42:25.174Z,7.27
2023-04-29T22:44:52.126Z,5.97
2023-04-29T22:47:19.146Z,6.50
2023-04-29T22:49:46.455Z,5.80
2023-04-29T22:52:13.475Z,5.53
2023-04-29T22:54:40.650Z,6.07
2023-04-29T22:57:07.666Z,5.80
2023-04-29T22:59:34.655Z,6.77
2023-04-29T23:02:01.605Z,6.32
2023-04-29T23:04:28.720Z,5.40
2023-04-29T23:06:55.750Z,6.03
2023-04-29T23:09:22.752Z,6.03
2023-04-29T23:11:49.739Z,5.60
2023-04-29T23:14:16.777Z,6.07
2023-04-29T23:16:43.751Z,5.90
2023-04-29T23:19:11.084Z,5.90
2023-04-29T23:21:38.122Z,6.27
2023-04-29T23:24:05.301Z,5.27
2023-04-29T23:26:32.372Z,6.17
2023-04-29T23:28:59.364Z,5.40
2023-04-29T23:31:26.412Z,5.30
2023-04-29T23:33:53.458Z,5.63
2023-04-29T23:36:20.592Z,7.40
2023-04-29T23:38:47.586Z,6.30
2023-04-29T23:41:14.560Z,5.97
2023-04-29T23:43:41.662Z,5.17
2023-04-29T23:46:08.901Z,6.23
2023-04-29T23:48:35.923Z,5.37
2023-04-29T23:51:02.965Z,6.40
2023-04-29T23:53:29.954Z,7.03
2023-04-29T23:55:56.950Z,6.17
2023-04-29T23:58:23.963Z,5.80
